Pagrindinis puslapis
METAR-TAF:

METAR-TAF

Oro uostai :

Savanaketas, Laosas

platuma: 16-33-24N, ilguma: 104-45-34E, Aukštis: 155 m

Dabartinis oras

Ataskaita buvo paskelbta 54 minutes, ne 12:00 UTC
Vėjas 2 kt iš Šiaurės Rytų
Temperatūra 26°C
Drėgmė 65%
Slėgis 1013 hPa
Matomumas: 3000 m
Išsisklaidę debesys ne aukštis 2000 ft
Išsisklaidę debesys ne aukštis 10000 ft
migla

METAR: VLSK 151200Z 04002KT 3000 HZ SCT020 SCT100 26/19 Q1013 NOSIG

Laikas: 19:54 (12:54 UTC)

Prognozė

Ataskaita buvo paskelbta 1 valandą ir 54 minutes, ne 11:00 UTC
Prognozė galioja nuo 15 metu 12 UTC su 16 metu 12 UTC
Vėjas 4 kt iš Rytų
Matomumas: 8000 m
Išsisklaidę debesys ne aukštis 2000 ft
Su prošvaistėmis ne aukštis 10000 ft

TAF: VLSK 151100Z 1512/1612 09004KT 8000 SCT020 BKN100

Orai ataskaitas ir orų prognozės (METAR, TAF).

turimą stotys yra geltonos ir raudonos taškus žemėlapyje.

Perkelti pele per norėdami pamatyti stoties vardą.

Tada spustelėkite, norėdami matyti oro stebėjimo ir prognozės.

Norėdami pakeisti žemėlapį: spustelėkite ant žalios mygtukų su juodo kryžiaus žemyn,; žalią mygtuką su brūkšneliu, jei norite nutolinti; arba žalių rodyklių gretimoms žemėlapius.


METAR-TAF: